createdAt,value
2023-02-16T00:01:27.256Z,14.00
2023-02-16T00:03:59.268Z,13.60
2023-02-16T00:06:30.754Z,15.97
2023-02-16T00:09:01.788Z,16.27
2023-02-16T00:11:57.716Z,14.20
2023-02-16T00:14:29.072Z,13.43
2023-02-16T00:17:01.079Z,15.43
2023-02-16T00:19:34.219Z,14.17
2023-02-16T00:22:06.167Z,13.53
2023-02-16T00:24:37.922Z,12.80
2023-02-16T00:27:15.190Z,14.33
2023-02-16T00:29:46.405Z,14.30
2023-02-16T00:32:17.355Z,14.23
2023-02-16T00:34:48.411Z,13.23
2023-02-16T00:37:19.327Z,12.67
2023-02-16T00:39:50.196Z,14.33
2023-02-16T00:42:24.108Z,14.00
2023-02-16T00:44:57.242Z,13.50
2023-02-16T00:47:30.929Z,13.70
2023-02-16T00:50:02.280Z,12.17
2023-02-16T00:52:38.223Z,12.67
2023-02-16T00:55:12.629Z,14.77
2023-02-16T00:57:47.100Z,12.17
2023-02-16T01:00:22.729Z,25.93
2023-02-16T01:02:56.327Z,12.90
2023-02-16T01:05:27.782Z,13.20
2023-02-16T01:08:16.533Z,15.93
2023-02-16T01:11:05.923Z,13.73
2023-02-16T01:13:56.399Z,14.53
2023-02-16T01:16:29.698Z,14.83
2023-02-16T01:19:00.605Z,19.43
2023-02-16T01:21:31.568Z,14.17
2023-02-16T01:24:02.608Z,12.07
2023-02-16T01:26:36.722Z,14.07
2023-02-16T01:29:07.948Z,13.43
2023-02-16T01:31:38.975Z,12.53
2023-02-16T01:34:09.964Z,30.17
2023-02-16T01:36:43.855Z,13.90
2023-02-16T01:39:17.868Z,14.03
2023-02-16T01:41:58.436Z,15.23
2023-02-16T01:44:31.896Z,14.47
2023-02-16T01:47:07.066Z,13.00
2023-02-16T01:49:38.107Z,13.97
2023-02-16T01:52:13.999Z,15.30
2023-02-16T01:54:47.956Z,14.63
2023-02-16T01:57:27.001Z,14.93
2023-02-16T02:03:33.501Z,15.07
2023-02-16T02:06:04.893Z,14.90
2023-02-16T02:08:38.474Z,13.43
2023-02-16T02:11:13.180Z,14.07
2023-02-16T02:13:46.931Z,13.77
2023-02-16T02:16:21.685Z,12.90
2023-02-16T02:18:53.229Z,14.33
2023-02-16T02:21:57.996Z,16.63
2023-02-16T02:27:43.858Z,13.60
2023-02-16T02:30:37.813Z,14.37
2023-02-16T02:33:22.155Z,14.00
2023-02-16T02:35:58.000Z,15.47
2023-02-16T02:38:31.816Z,16.43
2023-02-16T02:41:06.465Z,14.87
2023-02-16T02:43:40.437Z,14.77
2023-02-16T02:46:15.597Z,13.57
2023-02-16T02:48:46.502Z,14.70
2023-02-16T02:51:30.497Z,18.05
2023-02-16T02:54:21.977Z,15.23
2023-02-16T02:57:13.400Z,14.70
2023-02-16T03:00:05.519Z,16.43
2023-02-16T03:02:38.239Z,15.23
2023-02-16T03:05:11.816Z,15.07
2023-02-16T03:07:49.208Z,16.53
2023-02-16T03:10:41.326Z,15.37
2023-02-16T03:13:15.368Z,13.90
2023-02-16T03:15:47.707Z,16.17
2023-02-16T03:18:37.180Z,15.47
2023-02-16T03:21:26.552Z,14.33
2023-02-16T03:24:16.229Z,15.03
2023-02-16T03:27:07.680Z,15.17
2023-02-16T03:29:40.444Z,13.93
2023-02-16T03:32:11.697Z,14.77
2023-02-16T03:34:42.988Z,14.77
2023-02-16T03:37:14.782Z,15.23
2023-02-16T03:40:03.850Z,15.43
2023-02-16T03:42:39.881Z,15.43
2023-02-16T03:45:12.033Z,15.13
2023-02-16T03:47:42.968Z,14.80
2023-02-16T03:50:13.936Z,13.97
2023-02-16T03:52:44.911Z,15.03
2023-02-16T03:55:16.314Z,13.77
2023-02-16T03:57:47.402Z,14.07
2023-02-16T04:00:19.771Z,15.30
2023-02-16T04:02:50.821Z,13.97
2023-02-16T04:05:21.922Z,14.73
2023-02-16T04:07:52.942Z,14.50
2023-02-16T04:10:24.229Z,14.53
2023-02-16T04:12:55.550Z,15.75
2023-02-16T04:15:28.792Z,15.83
2023-02-16T04:18:00.170Z,15.33
2023-02-16T04:20:33.483Z,15.80
2023-02-16T04:23:04.978Z,14.93
2023-02-16T04:25:36.924Z,16.23
2023-02-16T04:28:18.336Z,15.43
2023-02-16T04:30:49.503Z,17.07
2023-02-16T04:33:20.491Z,16.00
2023-02-16T04:35:52.615Z,18.27
2023-02-16T04:38:23.581Z,18.93
2023-02-16T04:40:54.650Z,16.63
2023-02-16T04:43:25.862Z,15.73
2023-02-16T04:45:57.053Z,15.63
2023-02-16T04:48:28.286Z,16.30
2023-02-16T04:50:59.119Z,16.30
2023-02-16T04:53:30.051Z,15.87
2023-02-16T04:56:01.221Z,17.13
2023-02-16T04:58:32.208Z,16.93
2023-02-16T05:01:03.903Z,16.40
2023-02-16T05:03:35.057Z,15.00
2023-02-16T05:06:08.368Z,18.37
2023-02-16T05:08:39.286Z,18.93
2023-02-16T05:11:28.118Z,18.70
2023-02-16T05:14:17.597Z,17.63
2023-02-16T05:16:48.988Z,15.60
2023-02-16T05:19:19.747Z,16.87
2023-02-16T05:21:50.638Z,16.73
2023-02-16T05:27:00.020Z,16.20
2023-02-16T05:29:31.233Z,15.67
2023-02-16T05:32:04.557Z,18.37
2023-02-16T05:37:11.697Z,15.50
2023-02-16T05:39:42.788Z,16.23
2023-02-16T05:42:14.009Z,16.43
2023-02-16T05:44:45.172Z,15.80
2023-02-16T05:47:16.202Z,16.17
2023-02-16T05:49:47.251Z,17.87
2023-02-16T05:52:18.448Z,17.50
2023-02-16T05:54:49.731Z,17.33
2023-02-16T05:57:20.783Z,17.20
2023-02-16T05:59:51.910Z,16.10
2023-02-16T06:02:22.965Z,14.17
2023-02-16T06:04:54.194Z,16.23
2023-02-16T06:07:25.254Z,17.50
2023-02-16T06:09:56.233Z,17.37
2023-02-16T06:12:27.237Z,17.83
2023-02-16T06:14:57.981Z,19.20
2023-02-16T06:17:29.315Z,17.90
2023-02-16T06:20:00.342Z,17.00
2023-02-16T06:22:31.353Z,17.03
2023-02-16T06:25:02.321Z,16.20
2023-02-16T06:27:33.441Z,16.80
2023-02-16T06:30:04.992Z,18.83
2023-02-16T06:32:36.089Z,16.77
2023-02-16T06:35:10.224Z,17.87
2023-02-16T06:37:41.184Z,17.70
2023-02-16T06:40:15.237Z,16.47
2023-02-16T06:42:46.139Z,17.53
2023-02-16T06:45:17.134Z,18.20
2023-02-16T06:47:48.097Z,18.30
2023-02-16T06:50:19.292Z,17.20
2023-02-16T06:52:50.324Z,16.47
2023-02-16T06:55:21.389Z,15.70
2023-02-16T06:57:52.409Z,15.90
2023-02-16T07:00:24.329Z,15.80
2023-02-16T07:02:55.531Z,17.17
2023-02-16T07:05:26.806Z,15.87
2023-02-16T07:07:57.871Z,16.90
2023-02-16T07:10:37.401Z,17.03
2023-02-16T07:13:01.648Z,14.33
2023-02-16T07:15:34.620Z,15.20
2023-02-16T07:18:05.875Z,15.23
2023-02-16T07:20:37.101Z,16.77
2023-02-16T07:23:08.177Z,16.87
2023-02-16T07:25:39.214Z,16.57
2023-02-16T07:28:10.277Z,16.90
2023-02-16T07:30:41.477Z,16.30
2023-02-16T07:33:12.716Z,15.63
2023-02-16T07:35:43.889Z,15.73
2023-02-16T07:38:14.900Z,16.87
2023-02-16T07:40:45.934Z,17.00
2023-02-16T07:43:18.584Z,16.73
2023-02-16T07:45:49.700Z,15.67
2023-02-16T07:48:21.102Z,15.03
2023-02-16T07:50:52.124Z,17.73
2023-02-16T07:53:23.260Z,15.13
2023-02-16T07:55:54.366Z,22.00
2023-02-16T07:58:28.612Z,22.60
2023-02-16T08:01:08.930Z,17.03
2023-02-16T08:03:40.352Z,17.73
2023-02-16T08:06:12.199Z,17.07
2023-02-16T08:08:43.565Z,24.93
2023-02-16T08:11:16.472Z,26.20
2023-02-16T08:13:48.103Z,30.53
2023-02-16T08:16:21.422Z,26.10
2023-02-16T08:18:53.026Z,20.37
2023-02-16T08:21:25.555Z,21.17
2023-02-16T08:23:58.937Z,19.57
2023-02-16T08:26:32.631Z,16.00
2023-02-16T08:29:03.831Z,17.17
2023-02-16T08:31:36.926Z,24.87
2023-02-16T08:34:26.652Z,19.23
2023-02-16T08:36:58.734Z,14.13
2023-02-16T08:39:31.435Z,16.17
2023-02-16T08:42:04.044Z,17.00
2023-02-16T08:44:35.273Z,16.50
2023-02-16T08:47:06.425Z,17.37
2023-02-16T08:49:38.490Z,16.10
2023-02-16T08:52:10.221Z,16.17
2023-02-16T08:54:42.262Z,18.77
2023-02-16T08:57:14.371Z,15.97
2023-02-16T08:59:45.344Z,16.17
2023-02-16T09:02:18.329Z,17.17
2023-02-16T09:04:49.808Z,17.00
2023-02-16T09:07:21.552Z,14.97
2023-02-16T09:09:53.105Z,14.73
2023-02-16T09:12:24.056Z,13.10
2023-02-16T09:14:56.355Z,14.03
2023-02-16T09:17:28.232Z,14.60
2023-02-16T09:19:59.311Z,14.90
2023-02-16T09:22:30.247Z,14.77
2023-02-16T09:25:01.289Z,14.50
2023-02-16T09:27:32.896Z,16.13
2023-02-16T09:30:04.119Z,15.57
2023-02-16T09:32:35.351Z,15.67
2023-02-16T09:35:07.503Z,16.20
2023-02-16T09:37:38.573Z,13.63
2023-02-16T09:40:14.262Z,13.47
2023-02-16T09:42:54.138Z,12.53
2023-02-16T09:45:27.012Z,12.00
2023-02-16T09:48:00.062Z,12.47
2023-02-16T09:50:52.580Z,11.73
2023-02-16T09:53:09.744Z,11.67
2023-02-16T09:55:43.917Z,13.27
2023-02-16T09:58:19.315Z,11.87
2023-02-16T10:00:54.127Z,13.07
2023-02-16T10:03:37.362Z,12.43
2023-02-16T10:06:16.389Z,11.57
2023-02-16T10:08:50.709Z,12.17
2023-02-16T10:11:40.984Z,12.33
2023-02-16T10:14:16.369Z,12.60
2023-02-16T10:16:51.197Z,12.93
2023-02-16T10:19:24.914Z,12.27
2023-02-16T10:21:58.707Z,11.47
2023-02-16T10:24:32.499Z,11.57
2023-02-16T10:27:08.508Z,12.43
2023-02-16T10:29:39.362Z,11.90
2023-02-16T10:32:17.568Z,12.60
2023-02-16T10:34:52.879Z,14.03
2023-02-16T10:37:33.331Z,12.20
2023-02-16T10:40:15.625Z,14.13
2023-02-16T10:42:50.354Z,12.80
2023-02-16T10:45:28.491Z,12.83
2023-02-16T10:47:59.721Z,12.67
2023-02-16T10:50:33.813Z,12.90
2023-02-16T10:53:08.163Z,11.90
2023-02-16T10:55:40.149Z,11.70
2023-02-16T10:58:18.735Z,11.77
2023-02-16T11:00:54.634Z,12.70
2023-02-16T11:03:29.304Z,12.13
2023-02-16T11:06:05.318Z,12.47
2023-02-16T11:08:41.421Z,11.60
2023-02-16T11:11:13.712Z,12.13
2023-02-16T11:13:46.088Z,11.63
2023-02-16T11:16:22.553Z,11.87
2023-02-16T11:19:00.426Z,11.60
2023-02-16T11:21:48.301Z,11.40
2023-02-16T11:24:28.792Z,10.70
2023-02-16T11:27:08.346Z,12.37
2023-02-16T11:29:39.394Z,11.27
2023-02-16T11:32:12.383Z,11.97
2023-02-16T11:34:44.911Z,11.50
2023-02-16T11:37:20.323Z,10.87
2023-02-16T11:39:54.582Z,11.00
2023-02-16T11:42:31.397Z,10.87
2023-02-16T11:45:03.792Z,10.47
2023-02-16T11:47:37.800Z,11.40
2023-02-16T11:50:23.843Z,12.17
2023-02-16T11:52:57.562Z,10.93
2023-02-16T11:55:33.194Z,10.43
2023-02-16T11:58:19.851Z,10.97
2023-02-16T12:00:59.812Z,10.00
2023-02-16T12:03:39.868Z,10.40
2023-02-16T12:06:15.703Z,10.43
2023-02-16T12:08:55.103Z,10.07
2023-02-16T12:11:31.709Z,10.03
2023-02-16T12:14:12.610Z,9.63
2023-02-16T12:16:47.363Z,10.00
2023-02-16T12:19:33.372Z,10.20
2023-02-16T12:22:08.692Z,10.23
2023-02-16T12:24:46.007Z,10.47
2023-02-16T12:27:21.167Z,10.23
2023-02-16T12:29:57.546Z,9.60
2023-02-16T12:32:42.604Z,10.47
2023-02-16T12:35:23.861Z,10.20
2023-02-16T12:37:57.640Z,10.23
2023-02-16T12:40:33.040Z,10.43
2023-02-16T12:43:12.228Z,10.10
2023-02-16T12:45:45.808Z,9.17
2023-02-16T12:48:23.698Z,9.60
2023-02-16T12:50:56.067Z,8.80
2023-02-16T12:53:30.361Z,9.50
2023-02-16T12:56:04.136Z,8.93
2023-02-16T12:58:38.357Z,9.80
2023-02-16T13:01:14.814Z,10.23
2023-02-16T13:03:50.423Z,9.67
2023-02-16T13:06:26.610Z,9.17
2023-02-16T13:09:01.741Z,9.47
2023-02-16T13:11:36.710Z,9.73
2023-02-16T13:14:13.150Z,9.50
2023-02-16T13:16:47.997Z,9.03
2023-02-16T13:19:18.972Z,9.67
2023-02-16T13:22:36.483Z,13.50
2023-02-16T13:28:31.580Z,9.13
2023-02-16T13:31:12.744Z,9.33
2023-02-16T13:33:55.498Z,9.63
2023-02-16T13:36:50.980Z,9.13
2023-02-16T13:39:34.340Z,8.47
2023-02-16T13:45:18.891Z,9.57
2023-02-16T13:47:50.275Z,9.70
2023-02-16T13:50:33.528Z,10.40
2023-02-16T13:53:20.350Z,9.63
2023-02-16T13:55:52.496Z,8.67
2023-02-16T13:58:36.053Z,9.03
2023-02-16T14:01:43.257Z,9.00
2023-02-16T14:04:18.374Z,8.00
2023-02-16T14:06:49.890Z,8.60
2023-02-16T14:09:48.677Z,8.47
2023-02-16T14:12:22.184Z,9.23
2023-02-16T14:15:02.233Z,8.50
2023-02-16T14:17:35.567Z,8.50
2023-02-16T14:20:09.106Z,8.77
2023-02-16T14:22:44.636Z,8.40
2023-02-16T14:25:37.782Z,7.57
2023-02-16T14:28:26.963Z,7.53
2023-02-16T14:30:59.299Z,7.03
2023-02-16T14:33:33.334Z,7.23
2023-02-16T14:36:15.990Z,7.57
2023-02-16T14:38:49.639Z,7.20
2023-02-16T14:41:30.868Z,6.93
2023-02-16T14:47:15.716Z,7.40
2023-02-16T14:50:09.493Z,6.40
2023-02-16T14:53:10.084Z,7.00
2023-02-16T14:56:03.485Z,6.37
2023-02-16T14:58:37.876Z,6.97
2023-02-16T15:01:12.705Z,6.77
2023-02-16T15:03:48.909Z,7.47
2023-02-16T15:06:30.760Z,7.47
2023-02-16T15:09:03.645Z,8.27
2023-02-16T15:11:40.775Z,7.50
2023-02-16T15:14:16.475Z,7.37
2023-02-16T15:16:47.752Z,7.27
2023-02-16T15:19:23.220Z,7.20
2023-02-16T15:22:12.012Z,7.87
2023-02-16T15:24:44.055Z,7.53
2023-02-16T15:27:24.299Z,7.57
2023-02-16T15:30:21.718Z,6.73
2023-02-16T15:32:55.531Z,6.67
2023-02-16T15:35:30.181Z,7.23
2023-02-16T15:38:09.951Z,7.73
2023-02-16T15:40:42.470Z,6.40
2023-02-16T15:43:22.421Z,7.33
2023-02-16T15:45:55.869Z,6.50
2023-02-16T15:48:30.353Z,7.30
2023-02-16T15:51:05.463Z,7.53
2023-02-16T15:53:41.724Z,6.73
2023-02-16T15:56:33.468Z,7.40
2023-02-16T15:59:08.384Z,7.83
2023-02-16T16:01:40.497Z,8.07
2023-02-16T16:04:18.145Z,6.73
2023-02-16T16:06:51.223Z,7.10
2023-02-16T16:09:28.111Z,8.07
2023-02-16T16:12:01.820Z,7.50
2023-02-16T16:14:36.560Z,7.33
2023-02-16T16:17:10.120Z,8.67
2023-02-16T16:19:41.547Z,8.13
2023-02-16T16:22:31.866Z,8.18
2023-02-16T16:25:04.220Z,8.20
2023-02-16T16:27:37.450Z,8.50
2023-02-16T16:35:47.936Z,8.13
2023-02-16T16:38:26.505Z,7.63
2023-02-16T16:40:59.454Z,7.93
2023-02-16T16:43:32.694Z,8.30
2023-02-16T16:46:16.937Z,9.70
2023-02-16T16:48:49.514Z,8.70
2023-02-16T16:51:22.756Z,9.70
2023-02-16T16:54:00.657Z,9.43
2023-02-16T16:56:33.194Z,9.37
2023-02-16T16:59:04.451Z,8.97
2023-02-16T17:01:35.918Z,8.90
2023-02-16T17:04:26.769Z,9.30
2023-02-16T17:06:58.123Z,9.00
2023-02-16T17:09:28.899Z,9.47
2023-02-16T17:12:00.940Z,8.70
2023-02-16T17:14:32.001Z,9.50
2023-02-16T17:17:03.114Z,9.67
2023-02-16T17:19:34.434Z,9.80
2023-02-16T17:22:07.780Z,9.27
2023-02-16T17:24:38.611Z,8.97
2023-02-16T17:27:10.335Z,9.60
2023-02-16T17:29:43.185Z,9.13
2023-02-16T17:32:14.210Z,8.73
2023-02-16T17:34:45.183Z,9.03
2023-02-16T17:37:19.603Z,9.37
2023-02-16T17:39:50.566Z,8.87
2023-02-16T17:42:21.795Z,9.23
2023-02-16T17:44:53.919Z,9.60
2023-02-16T17:47:25.653Z,10.07
2023-02-16T17:49:57.405Z,16.93
2023-02-16T17:52:28.849Z,10.67
2023-02-16T17:55:03.608Z,9.80
2023-02-16T17:57:34.802Z,9.07
2023-02-16T18:00:08.364Z,10.10
2023-02-16T18:02:39.535Z,11.27
2023-02-16T18:05:12.250Z,11.03
2023-02-16T18:07:44.274Z,11.50
2023-02-16T18:10:22.280Z,10.83
2023-02-16T18:12:53.605Z,10.37
2023-02-16T18:15:25.424Z,10.97
2023-02-16T18:17:56.436Z,9.73
2023-02-16T18:20:29.173Z,9.77
2023-02-16T18:23:00.916Z,10.27
2023-02-16T18:25:32.680Z,9.40
2023-02-16T18:28:03.886Z,10.60
2023-02-16T18:30:34.881Z,10.40
2023-02-16T18:33:06.190Z,9.77
2023-02-16T18:35:38.018Z,9.57
2023-02-16T18:38:09.270Z,11.07
2023-02-16T18:40:41.602Z,9.57
2023-02-16T18:43:12.744Z,9.80
2023-02-16T18:45:44.109Z,12.53
2023-02-16T18:48:15.299Z,9.87
2023-02-16T18:50:46.233Z,11.80
2023-02-16T18:53:17.298Z,10.87
2023-02-16T18:55:48.242Z,11.77
2023-02-16T18:58:19.481Z,10.43
2023-02-16T19:00:50.861Z,11.50
2023-02-16T19:03:21.824Z,11.37
2023-02-16T19:05:53.896Z,11.87
2023-02-16T19:08:24.838Z,10.43
2023-02-16T19:10:56.376Z,9.87
2023-02-16T19:13:27.970Z,10.50
2023-02-16T19:15:59.243Z,8.43
2023-02-16T19:18:48.872Z,10.97
2023-02-16T19:21:20.326Z,11.57
2023-02-16T19:23:52.082Z,10.73
2023-02-16T19:26:22.958Z,10.13
2023-02-16T19:28:55.179Z,11.17
2023-02-16T19:31:28.538Z,10.13
2023-02-16T19:36:40.857Z,10.20
2023-02-16T19:39:12.811Z,10.30
2023-02-16T19:41:45.954Z,10.03
2023-02-16T19:44:18.564Z,9.03
2023-02-16T19:46:51.200Z,7.73
2023-02-16T19:49:22.751Z,8.83
2023-02-16T19:51:55.126Z,7.77
2023-02-16T19:54:26.261Z,8.03
2023-02-16T19:56:57.717Z,9.40
2023-02-16T19:59:30.918Z,8.77
2023-02-16T20:02:02.108Z,9.23
2023-02-16T20:04:34.549Z,10.47
2023-02-16T20:07:07.003Z,9.77
2023-02-16T20:09:38.576Z,10.03
2023-02-16T20:12:10.334Z,9.47
2023-02-16T20:14:41.502Z,8.97
2023-02-16T20:17:13.020Z,8.90
2023-02-16T20:19:44.132Z,9.07
2023-02-16T20:22:16.934Z,8.00
2023-02-16T20:24:48.085Z,9.20
2023-02-16T20:29:56.896Z,9.30
2023-02-16T20:32:28.849Z,9.20
2023-02-16T20:35:00.082Z,8.43
2023-02-16T20:37:31.230Z,9.13
2023-02-16T20:40:02.280Z,7.77
2023-02-16T20:42:33.564Z,8.60
2023-02-16T20:45:04.607Z,8.60
2023-02-16T20:47:35.468Z,7.30
2023-02-16T20:50:07.531Z,8.90
2023-02-16T20:52:40.065Z,8.60
2023-02-16T20:55:12.450Z,7.83
2023-02-16T20:57:43.403Z,7.60
2023-02-16T21:02:54.825Z,8.47
2023-02-16T21:05:25.990Z,9.03
2023-02-16T21:07:56.543Z,8.53
2023-02-16T21:10:27.198Z,8.07
2023-02-16T21:12:57.825Z,8.90
2023-02-16T21:15:28.476Z,8.47
2023-02-16T21:17:59.448Z,7.67
2023-02-16T21:20:49.176Z,7.80
2023-02-16T21:23:20.045Z,7.93
2023-02-16T21:25:51.036Z,16.97
2023-02-16T21:28:22.062Z,7.83
2023-02-16T21:30:53.143Z,8.77
2023-02-16T21:33:24.354Z,7.70
2023-02-16T21:35:55.325Z,8.07
2023-02-16T21:38:26.237Z,8.03
2023-02-16T21:41:16.349Z,7.57
2023-02-16T21:43:47.404Z,8.53
2023-02-16T21:46:19.802Z,8.93
2023-02-16T21:48:51.416Z,8.90
2023-02-16T21:51:25.059Z,8.83
2023-02-16T21:53:56.713Z,8.90
2023-02-16T21:56:36.459Z,7.77
2023-02-16T21:59:09.170Z,8.93
2023-02-16T22:01:42.807Z,9.77
2023-02-16T22:04:15.728Z,9.17
2023-02-16T22:06:48.260Z,8.23
2023-02-16T22:09:21.652Z,9.40
2023-02-16T22:11:53.198Z,8.53
2023-02-16T22:14:24.111Z,9.43
2023-02-16T22:16:55.294Z,8.97
2023-02-16T22:19:26.438Z,9.20
2023-02-16T22:21:57.414Z,9.07
2023-02-16T22:24:28.436Z,9.90
2023-02-16T22:26:59.473Z,9.53
2023-02-16T22:29:30.401Z,9.80
2023-02-16T22:32:01.519Z,9.97
2023-02-16T22:34:32.689Z,8.93
2023-02-16T22:37:03.845Z,9.33
2023-02-16T22:42:13.616Z,10.07
2023-02-16T22:44:44.694Z,10.37
2023-02-16T22:47:15.523Z,9.40
2023-02-16T22:49:46.377Z,9.37
2023-02-16T22:52:17.451Z,10.70
2023-02-16T22:54:50.032Z,11.27
2023-02-16T22:57:21.280Z,10.13
2023-02-16T22:59:52.249Z,10.63
2023-02-16T23:02:23.255Z,10.87
2023-02-16T23:04:58.788Z,10.27
2023-02-16T23:07:29.849Z,10.77
2023-02-16T23:10:00.921Z,10.40
2023-02-16T23:12:31.837Z,10.40
2023-02-16T23:15:02.843Z,10.63
2023-02-16T23:17:33.801Z,10.57
2023-02-16T23:20:05.529Z,12.03
2023-02-16T23:22:36.793Z,11.50
2023-02-16T23:25:26.689Z,12.00
2023-02-16T23:27:57.952Z,12.03
2023-02-16T23:30:29.158Z,12.73
2023-02-16T23:33:00.361Z,12.60
2023-02-16T23:35:31.402Z,11.87
2023-02-16T23:38:03.806Z,13.27
2023-02-16T23:40:34.900Z,14.77
2023-02-16T23:43:05.750Z,12.27
2023-02-16T23:45:36.970Z,13.10
2023-02-16T23:48:08.319Z,13.13
2023-02-16T23:50:39.320Z,19.07
2023-02-16T23:53:10.390Z,10.77
2023-02-16T23:55:41.465Z,11.83
2023-02-16T23:58:12.198Z,11.53
